sensor_id;sensor_type;location;lat;lon;timestamp;P1;durP1;ratioP1;P2;durP2;ratioP2
42978;SDS011;28616;44.746;19.678;2023-04-06T00:01:37;37.70;;;15.98;;
42978;SDS011;28616;44.746;19.678;2023-04-06T00:04:03;23.83;;;12.70;;
42978;SDS011;28616;44.746;19.678;2023-04-06T00:06:28;24.75;;;13.32;;
42978;SDS011;28616;44.746;19.678;2023-04-06T00:08:55;26.33;;;14.25;;
42978;SDS011;28616;44.746;19.678;2023-04-06T00:11:21;32.72;;;17.80;;
42978;SDS011;28616;44.746;19.678;2023-04-06T00:13:47;30.67;;;14.18;;
42978;SDS011;28616;44.746;19.678;2023-04-06T00:16:13;29.98;;;14.85;;
42978;SDS011;28616;44.746;19.678;2023-04-06T00:18:39;37.70;;;17.95;;
42978;SDS011;28616;44.746;19.678;2023-04-06T00:21:05;35.85;;;18.55;;
42978;SDS011;28616;44.746;19.678;2023-04-06T00:23:31;42.70;;;18.33;;
42978;SDS011;28616;44.746;19.678;2023-04-06T00:25:57;35.72;;;17.58;;
42978;SDS011;28616;44.746;19.678;2023-04-06T00:28:22;31.23;;;16.40;;
42978;SDS011;28616;44.746;19.678;2023-04-06T00:30:52;29.05;;;14.38;;
42978;SDS011;28616;44.746;19.678;2023-04-06T00:33:20;32.20;;;15.77;;
42978;SDS011;28616;44.746;19.678;2023-04-06T00:35:46;38.20;;;15.93;;
42978;SDS011;28616;44.746;19.678;2023-04-06T00:38:12;28.35;;;14.60;;
42978;SDS011;28616;44.746;19.678;2023-04-06T00:40:38;28.67;;;13.45;;
42978;SDS011;28616;44.746;19.678;2023-04-06T00:43:06;29.00;;;14.95;;
42978;SDS011;28616;44.746;19.678;2023-04-06T00:45:34;23.65;;;12.38;;
42978;SDS011;28616;44.746;19.678;2023-04-06T00:48:00;25.58;;;13.05;;
42978;SDS011;28616;44.746;19.678;2023-04-06T00:50:26;20.67;;;12.23;;
42978;SDS011;28616;44.746;19.678;2023-04-06T00:52:53;27.88;;;13.07;;
42978;SDS011;28616;44.746;19.678;2023-04-06T00:55:22;30.80;;;12.18;;
42978;SDS011;28616;44.746;19.678;2023-04-06T00:57:47;23.85;;;11.77;;
42978;SDS011;28616;44.746;19.678;2023-04-06T01:00:15;31.13;;;12.68;;
42978;SDS011;28616;44.746;19.678;2023-04-06T01:02:42;25.90;;;12.35;;
42978;SDS011;28616;44.746;19.678;2023-04-06T01:05:09;23.95;;;11.98;;
42978;SDS011;28616;44.746;19.678;2023-04-06T01:07:36;29.10;;;13.63;;
42978;SDS011;28616;44.746;19.678;2023-04-06T01:10:01;27.33;;;13.20;;
42978;SDS011;28616;44.746;19.678;2023-04-06T01:12:27;27.25;;;14.40;;
42978;SDS011;28616;44.746;19.678;2023-04-06T01:14:54;24.33;;;12.25;;
42978;SDS011;28616;44.746;19.678;2023-04-06T01:17:19;24.17;;;13.40;;
42978;SDS011;28616;44.746;19.678;2023-04-06T01:19:45;27.83;;;13.57;;
42978;SDS011;28616;44.746;19.678;2023-04-06T01:22:14;31.15;;;13.70;;
42978;SDS011;28616;44.746;19.678;2023-04-06T01:24:41;24.95;;;14.45;;
42978;SDS011;28616;44.746;19.678;2023-04-06T01:27:07;25.08;;;13.10;;
42978;SDS011;28616;44.746;19.678;2023-04-06T01:29:33;32.67;;;14.82;;
42978;SDS011;28616;44.746;19.678;2023-04-06T01:31:59;22.92;;;12.50;;
42978;SDS011;28616;44.746;19.678;2023-04-06T01:34:25;29.30;;;13.93;;
42978;SDS011;28616;44.746;19.678;2023-04-06T01:36:51;24.90;;;12.13;;
42978;SDS011;28616;44.746;19.678;2023-04-06T01:39:16;23.88;;;12.65;;
42978;SDS011;28616;44.746;19.678;2023-04-06T01:41:42;25.85;;;13.13;;
42978;SDS011;28616;44.746;19.678;2023-04-06T01:44:08;27.08;;;12.88;;
42978;SDS011;28616;44.746;19.678;2023-04-06T01:46:34;25.88;;;14.05;;
42978;SDS011;28616;44.746;19.678;2023-04-06T01:49:00;24.55;;;12.25;;
42978;SDS011;28616;44.746;19.678;2023-04-06T01:51:26;24.98;;;12.57;;
42978;SDS011;28616;44.746;19.678;2023-04-06T01:53:51;24.73;;;12.77;;
42978;SDS011;28616;44.746;19.678;2023-04-06T01:56:17;26.30;;;13.13;;
42978;SDS011;28616;44.746;19.678;2023-04-06T01:58:43;23.27;;;12.77;;
42978;SDS011;28616;44.746;19.678;2023-04-06T02:01:09;25.95;;;12.02;;
42978;SDS011;28616;44.746;19.678;2023-04-06T02:03:35;28.20;;;13.45;;
42978;SDS011;28616;44.746;19.678;2023-04-06T02:06:01;24.70;;;12.18;;
42978;SDS011;28616;44.746;19.678;2023-04-06T02:08:26;27.85;;;13.82;;
42978;SDS011;28616;44.746;19.678;2023-04-06T02:10:52;33.55;;;13.98;;
42978;SDS011;28616;44.746;19.678;2023-04-06T02:13:18;21.77;;;12.68;;
42978;SDS011;28616;44.746;19.678;2023-04-06T02:15:44;27.58;;;12.77;;
42978;SDS011;28616;44.746;19.678;2023-04-06T02:18:09;24.35;;;10.95;;
42978;SDS011;28616;44.746;19.678;2023-04-06T02:20:35;22.65;;;12.40;;
42978;SDS011;28616;44.746;19.678;2023-04-06T02:23:01;24.38;;;11.85;;
42978;SDS011;28616;44.746;19.678;2023-04-06T02:25:27;27.55;;;13.13;;
42978;SDS011;28616;44.746;19.678;2023-04-06T02:27:53;31.20;;;14.23;;
42978;SDS011;28616;44.746;19.678;2023-04-06T02:30:19;25.33;;;12.20;;
42978;SDS011;28616;44.746;19.678;2023-04-06T02:32:45;30.52;;;13.43;;
42978;SDS011;28616;44.746;19.678;2023-04-06T02:35:10;25.50;;;12.88;;
42978;SDS011;28616;44.746;19.678;2023-04-06T02:37:36;25.35;;;11.60;;
42978;SDS011;28616;44.746;19.678;2023-04-06T02:40:02;23.30;;;12.13;;
42978;SDS011;28616;44.746;19.678;2023-04-06T02:42:28;25.67;;;11.30;;
42978;SDS011;28616;44.746;19.678;2023-04-06T02:44:54;29.55;;;12.90;;
42978;SDS011;28616;44.746;19.678;2023-04-06T02:47:20;23.55;;;11.25;;
42978;SDS011;28616;44.746;19.678;2023-04-06T02:49:45;25.25;;;13.13;;
42978;SDS011;28616;44.746;19.678;2023-04-06T02:52:11;22.80;;;11.73;;
42978;SDS011;28616;44.746;19.678;2023-04-06T02:54:37;21.92;;;11.38;;
42978;SDS011;28616;44.746;19.678;2023-04-06T02:57:03;24.65;;;13.07;;
42978;SDS011;28616;44.746;19.678;2023-04-06T02:59:28;26.20;;;13.77;;
42978;SDS011;28616;44.746;19.678;2023-04-06T03:01:54;24.77;;;12.95;;
42978;SDS011;28616;44.746;19.678;2023-04-06T03:04:20;30.42;;;16.33;;
42978;SDS011;28616;44.746;19.678;2023-04-06T03:06:47;25.55;;;12.52;;
42978;SDS011;28616;44.746;19.678;2023-04-06T03:09:13;26.60;;;12.23;;
42978;SDS011;28616;44.746;19.678;2023-04-06T03:11:39;28.42;;;13.68;;
42978;SDS011;28616;44.746;19.678;2023-04-06T03:14:05;24.23;;;12.32;;
42978;SDS011;28616;44.746;19.678;2023-04-06T03:16:31;33.25;;;14.25;;
42978;SDS011;28616;44.746;19.678;2023-04-06T03:18:56;31.52;;;14.50;;
42978;SDS011;28616;44.746;19.678;2023-04-06T03:21:22;26.05;;;15.27;;
42978;SDS011;28616;44.746;19.678;2023-04-06T03:23:48;28.77;;;13.80;;
42978;SDS011;28616;44.746;19.678;2023-04-06T03:26:16;38.05;;;16.58;;
42978;SDS011;28616;44.746;19.678;2023-04-06T03:28:42;30.20;;;16.52;;
42978;SDS011;28616;44.746;19.678;2023-04-06T03:31:08;29.48;;;15.05;;
42978;SDS011;28616;44.746;19.678;2023-04-06T03:33:34;32.92;;;15.80;;
42978;SDS011;28616;44.746;19.678;2023-04-06T03:36:00;33.15;;;16.10;;
42978;SDS011;28616;44.746;19.678;2023-04-06T03:38:25;35.33;;;16.27;;
42978;SDS011;28616;44.746;19.678;2023-04-06T03:40:51;35.63;;;16.77;;
42978;SDS011;28616;44.746;19.678;2023-04-06T03:43:17;38.58;;;18.77;;
42978;SDS011;28616;44.746;19.678;2023-04-06T03:58:18;38.53;;;17.92;;
42978;SDS011;28616;44.746;19.678;2023-04-06T04:00:44;39.80;;;20.52;;
42978;SDS011;28616;44.746;19.678;2023-04-06T04:03:10;30.33;;;17.00;;
42978;SDS011;28616;44.746;19.678;2023-04-06T04:05:36;34.40;;;16.67;;
42978;SDS011;28616;44.746;19.678;2023-04-06T04:08:01;34.85;;;17.88;;
42978;SDS011;28616;44.746;19.678;2023-04-06T04:10:27;41.25;;;20.23;;
42978;SDS011;28616;44.746;19.678;2023-04-06T04:12:53;45.50;;;20.58;;
42978;SDS011;28616;44.746;19.678;2023-04-06T04:15:19;45.13;;;23.45;;
42978;SDS011;28616;44.746;19.678;2023-04-06T04:17:44;48.97;;;22.05;;
42978;SDS011;28616;44.746;19.678;2023-04-06T04:20:12;42.88;;;19.60;;
42978;SDS011;28616;44.746;19.678;2023-04-06T04:22:38;42.13;;;19.25;;
42978;SDS011;28616;44.746;19.678;2023-04-06T04:25:04;36.72;;;18.45;;
42978;SDS011;28616;44.746;19.678;2023-04-06T04:27:30;37.65;;;18.65;;
42978;SDS011;28616;44.746;19.678;2023-04-06T04:29:56;35.33;;;16.95;;
42978;SDS011;28616;44.746;19.678;2023-04-06T04:32:21;34.85;;;17.60;;
42978;SDS011;28616;44.746;19.678;2023-04-06T04:34:47;41.10;;;18.85;;
42978;SDS011;28616;44.746;19.678;2023-04-06T04:37:13;45.13;;;21.02;;
42978;SDS011;28616;44.746;19.678;2023-04-06T04:39:38;47.25;;;20.73;;
42978;SDS011;28616;44.746;19.678;2023-04-06T04:42:04;86.30;;;32.80;;
42978;SDS011;28616;44.746;19.678;2023-04-06T04:44:30;129.65;;;45.78;;
42978;SDS011;28616;44.746;19.678;2023-04-06T04:46:56;145.98;;;55.20;;
42978;SDS011;28616;44.746;19.678;2023-04-06T04:49:22;134.70;;;51.53;;
42978;SDS011;28616;44.746;19.678;2023-04-06T04:51:47;79.13;;;35.10;;
42978;SDS011;28616;44.746;19.678;2023-04-06T04:54:13;66.50;;;27.95;;
42978;SDS011;28616;44.746;19.678;2023-04-06T04:56:39;50.35;;;24.90;;
42978;SDS011;28616;44.746;19.678;2023-04-06T04:59:04;65.53;;;25.67;;
42978;SDS011;28616;44.746;19.678;2023-04-06T05:01:30;70.57;;;29.67;;
42978;SDS011;28616;44.746;19.678;2023-04-06T05:03:56;65.22;;;29.50;;
42978;SDS011;28616;44.746;19.678;2023-04-06T05:06:21;53.45;;;25.98;;
42978;SDS011;28616;44.746;19.678;2023-04-06T05:08:47;63.65;;;26.75;;
42978;SDS011;28616;44.746;19.678;2023-04-06T05:11:13;65.28;;;28.30;;
42978;SDS011;28616;44.746;19.678;2023-04-06T05:13:39;59.63;;;29.25;;
42978;SDS011;28616;44.746;19.678;2023-04-06T05:16:05;83.85;;;32.40;;
42978;SDS011;28616;44.746;19.678;2023-04-06T05:18:31;79.25;;;31.05;;
42978;SDS011;28616;44.746;19.678;2023-04-06T05:20:56;82.97;;;34.28;;
42978;SDS011;28616;44.746;19.678;2023-04-06T05:23:22;83.97;;;36.20;;
42978;SDS011;28616;44.746;19.678;2023-04-06T05:25:48;76.47;;;32.88;;
42978;SDS011;28616;44.746;19.678;2023-04-06T05:28:14;63.00;;;28.23;;
42978;SDS011;28616;44.746;19.678;2023-04-06T05:30:41;67.72;;;29.15;;
42978;SDS011;28616;44.746;19.678;2023-04-06T05:33:08;68.70;;;29.75;;
42978;SDS011;28616;44.746;19.678;2023-04-06T05:35:34;75.13;;;29.85;;
42978;SDS011;28616;44.746;19.678;2023-04-06T05:38:00;79.30;;;30.73;;
42978;SDS011;28616;44.746;19.678;2023-04-06T05:40:26;100.20;;;36.40;;
42978;SDS011;28616;44.746;19.678;2023-04-06T05:42:51;65.75;;;27.40;;
42978;SDS011;28616;44.746;19.678;2023-04-06T05:45:17;101.68;;;36.28;;
42978;SDS011;28616;44.746;19.678;2023-04-06T05:47:43;88.10;;;30.02;;
42978;SDS011;28616;44.746;19.678;2023-04-06T05:50:13;102.57;;;33.92;;
42978;SDS011;28616;44.746;19.678;2023-04-06T05:52:39;73.13;;;29.25;;
42978;SDS011;28616;44.746;19.678;2023-04-06T05:55:10;80.53;;;27.17;;
42978;SDS011;28616;44.746;19.678;2023-04-06T05:57:36;77.28;;;27.30;;
42978;SDS011;28616;44.746;19.678;2023-04-06T06:00:02;84.97;;;27.95;;
42978;SDS011;28616;44.746;19.678;2023-04-06T06:02:30;73.22;;;26.20;;
42978;SDS011;28616;44.746;19.678;2023-04-06T06:04:56;66.28;;;24.63;;
42978;SDS011;28616;44.746;19.678;2023-04-06T06:07:22;66.80;;;27.33;;
42978;SDS011;28616;44.746;19.678;2023-04-06T06:09:48;64.68;;;26.40;;
42978;SDS011;28616;44.746;19.678;2023-04-06T06:12:15;60.65;;;25.58;;
42978;SDS011;28616;44.746;19.678;2023-04-06T06:14:40;67.15;;;26.02;;
42978;SDS011;28616;44.746;19.678;2023-04-06T06:17:06;60.95;;;23.48;;
42978;SDS011;28616;44.746;19.678;2023-04-06T06:19:32;68.00;;;26.27;;
42978;SDS011;28616;44.746;19.678;2023-04-06T06:21:58;62.90;;;26.63;;
42978;SDS011;28616;44.746;19.678;2023-04-06T06:24:26;70.88;;;25.30;;
42978;SDS011;28616;44.746;19.678;2023-04-06T06:26:52;69.43;;;25.10;;
42978;SDS011;28616;44.746;19.678;2023-04-06T06:29:18;67.53;;;25.02;;
42978;SDS011;28616;44.746;19.678;2023-04-06T06:31:44;83.03;;;30.88;;
42978;SDS011;28616;44.746;19.678;2023-04-06T06:34:10;82.32;;;30.98;;
42978;SDS011;28616;44.746;19.678;2023-04-06T07:41:42;25.65;;;11.98;;
42978;SDS011;28616;44.746;19.678;2023-04-06T07:44:07;34.67;;;14.30;;
42978;SDS011;28616;44.746;19.678;2023-04-06T07:46:33;19.85;;;10.77;;
42978;SDS011;28616;44.746;19.678;2023-04-06T07:48:59;25.42;;;13.20;;
42978;SDS011;28616;44.746;19.678;2023-04-06T07:51:28;21.90;;;10.45;;
42978;SDS011;28616;44.746;19.678;2023-04-06T07:53:54;24.63;;;10.80;;
42978;SDS011;28616;44.746;19.678;2023-04-06T07:56:20;23.05;;;10.48;;
42978;SDS011;28616;44.746;19.678;2023-04-06T07:58:46;25.35;;;13.80;;
42978;SDS011;28616;44.746;19.678;2023-04-06T08:01:12;23.08;;;11.88;;
42978;SDS011;28616;44.746;19.678;2023-04-06T08:03:39;22.42;;;10.48;;
42978;SDS011;28616;44.746;19.678;2023-04-06T08:06:05;24.90;;;10.43;;
42978;SDS011;28616;44.746;19.678;2023-04-06T08:08:31;22.95;;;12.32;;
42978;SDS011;28616;44.746;19.678;2023-04-06T08:10:57;28.60;;;12.02;;
42978;SDS011;28616;44.746;19.678;2023-04-06T08:13:23;25.67;;;13.55;;
42978;SDS011;28616;44.746;19.678;2023-04-06T08:15:48;23.17;;;11.48;;
42978;SDS011;28616;44.746;19.678;2023-04-06T08:18:14;20.55;;;11.77;;
42978;SDS011;28616;44.746;19.678;2023-04-06T08:20:40;28.52;;;13.77;;
42978;SDS011;28616;44.746;19.678;2023-04-06T08:23:06;36.17;;;21.17;;
42978;SDS011;28616;44.746;19.678;2023-04-06T08:25:34;30.67;;;14.13;;
42978;SDS011;28616;44.746;19.678;2023-04-06T08:28:01;22.73;;;10.20;;
42978;SDS011;28616;44.746;19.678;2023-04-06T08:30:28;18.83;;;11.35;;
42978;SDS011;28616;44.746;19.678;2023-04-06T08:32:54;19.88;;;10.40;;
42978;SDS011;28616;44.746;19.678;2023-04-06T08:35:20;24.65;;;11.07;;
42978;SDS011;28616;44.746;19.678;2023-04-06T08:37:45;28.23;;;13.30;;
42978;SDS011;28616;44.746;19.678;2023-04-06T08:40:12;26.40;;;11.55;;
42978;SDS011;28616;44.746;19.678;2023-04-06T08:42:43;23.63;;;12.27;;
42978;SDS011;28616;44.746;19.678;2023-04-06T08:45:14;19.30;;;11.45;;
42978;SDS011;28616;44.746;19.678;2023-04-06T08:47:41;18.63;;;9.95;;
42978;SDS011;28616;44.746;19.678;2023-04-06T08:50:07;21.42;;;13.77;;
42978;SDS011;28616;44.746;19.678;2023-04-06T08:52:36;23.88;;;13.50;;
42978;SDS011;28616;44.746;19.678;2023-04-06T08:55:03;20.90;;;10.85;;
42978;SDS011;28616;44.746;19.678;2023-04-06T08:57:29;18.08;;;10.13;;
42978;SDS011;28616;44.746;19.678;2023-04-06T08:59:56;19.10;;;10.30;;
42978;SDS011;28616;44.746;19.678;2023-04-06T09:02:25;24.65;;;10.15;;
42978;SDS011;28616;44.746;19.678;2023-04-06T09:04:52;15.70;;;8.82;;
42978;SDS011;28616;44.746;19.678;2023-04-06T09:07:19;18.77;;;11.23;;
42978;SDS011;28616;44.746;19.678;2023-04-06T09:09:45;24.30;;;12.25;;
42978;SDS011;28616;44.746;19.678;2023-04-06T09:12:29;21.02;;;10.98;;
42978;SDS011;28616;44.746;19.678;2023-04-06T09:14:56;19.80;;;9.45;;
42978;SDS011;28616;44.746;19.678;2023-04-06T09:17:23;26.50;;;12.32;;
42978;SDS011;28616;44.746;19.678;2023-04-06T09:19:51;18.95;;;10.52;;
42978;SDS011;28616;44.746;19.678;2023-04-06T09:22:17;19.52;;;10.45;;
42978;SDS011;28616;44.746;19.678;2023-04-06T09:24:47;17.20;;;9.52;;
42978;SDS011;28616;44.746;19.678;2023-04-06T09:27:14;23.27;;;11.87;;
42978;SDS011;28616;44.746;19.678;2023-04-06T09:29:41;37.60;;;17.33;;
42978;SDS011;28616;44.746;19.678;2023-04-06T09:32:08;34.10;;;16.25;;
42978;SDS011;28616;44.746;19.678;2023-04-06T09:34:41;28.10;;;15.07;;
42978;SDS011;28616;44.746;19.678;2023-04-06T09:37:17;24.35;;;12.48;;
42978;SDS011;28616;44.746;19.678;2023-04-06T09:39:44;19.92;;;9.98;;
42978;SDS011;28616;44.746;19.678;2023-04-06T09:42:12;18.63;;;11.15;;
42978;SDS011;28616;44.746;19.678;2023-04-06T09:44:53;24.08;;;11.65;;
42978;SDS011;28616;44.746;19.678;2023-04-06T09:47:19;32.28;;;14.82;;
42978;SDS011;28616;44.746;19.678;2023-04-06T09:49:48;52.33;;;22.13;;
42978;SDS011;28616;44.746;19.678;2023-04-06T09:52:18;87.18;;;36.50;;
42978;SDS011;28616;44.746;19.678;2023-04-06T09:54:45;21.05;;;12.25;;
42978;SDS011;28616;44.746;19.678;2023-04-06T09:57:24;23.92;;;13.15;;
42978;SDS011;28616;44.746;19.678;2023-04-06T10:00:06;75.80;;;33.28;;
42978;SDS011;28616;44.746;19.678;2023-04-06T10:05:43;36.17;;;17.65;;
42978;SDS011;28616;44.746;19.678;2023-04-06T10:08:15;33.47;;;18.00;;
42978;SDS011;28616;44.746;19.678;2023-04-06T10:10:42;22.58;;;10.57;;
42978;SDS011;28616;44.746;19.678;2023-04-06T10:13:09;23.17;;;11.68;;
42978;SDS011;28616;44.746;19.678;2023-04-06T10:15:36;17.25;;;10.80;;
42978;SDS011;28616;44.746;19.678;2023-04-06T10:18:03;21.10;;;11.00;;
42978;SDS011;28616;44.746;19.678;2023-04-06T10:20:36;22.48;;;9.38;;
42978;SDS011;28616;44.746;19.678;2023-04-06T10:25:51;17.23;;;8.05;;
42978;SDS011;28616;44.746;19.678;2023-04-06T10:28:21;22.42;;;13.23;;
42978;SDS011;28616;44.746;19.678;2023-04-06T10:30:47;29.35;;;14.90;;
42978;SDS011;28616;44.746;19.678;2023-04-06T10:33:17;25.83;;;13.23;;
42978;SDS011;28616;44.746;19.678;2023-04-06T10:35:44;17.25;;;8.93;;
42978;SDS011;28616;44.746;19.678;2023-04-06T10:38:10;19.48;;;10.25;;
42978;SDS011;28616;44.746;19.678;2023-04-06T10:40:40;20.67;;;11.38;;
42978;SDS011;28616;44.746;19.678;2023-04-06T10:45:37;28.70;;;12.20;;
42978;SDS011;28616;44.746;19.678;2023-04-06T10:48:17;23.05;;;12.13;;
42978;SDS011;28616;44.746;19.678;2023-04-06T10:50:44;17.13;;;9.48;;
42978;SDS011;28616;44.746;19.678;2023-04-06T10:53:20;29.73;;;12.50;;
42978;SDS011;28616;44.746;19.678;2023-04-06T10:55:47;32.28;;;16.88;;
42978;SDS011;28616;44.746;19.678;2023-04-06T10:58:19;24.95;;;12.13;;
42978;SDS011;28616;44.746;19.678;2023-04-06T11:00:46;28.88;;;14.30;;
42978;SDS011;28616;44.746;19.678;2023-04-06T11:03:13;28.77;;;13.80;;
42978;SDS011;28616;44.746;19.678;2023-04-06T11:05:42;29.90;;;11.68;;
42978;SDS011;28616;44.746;19.678;2023-04-06T11:08:09;25.67;;;11.90;;
42978;SDS011;28616;44.746;19.678;2023-04-06T11:10:35;38.85;;;14.48;;
42978;SDS011;28616;44.746;19.678;2023-04-06T11:13:01;31.23;;;13.45;;
42978;SDS011;28616;44.746;19.678;2023-04-06T11:15:33;30.80;;;14.07;;
42978;SDS011;28616;44.746;19.678;2023-04-06T11:18:03;26.35;;;12.52;;
42978;SDS011;28616;44.746;19.678;2023-04-06T11:20:29;39.72;;;14.50;;
42978;SDS011;28616;44.746;19.678;2023-04-06T11:22:55;36.08;;;14.73;;
42978;SDS011;28616;44.746;19.678;2023-04-06T11:25:23;19.30;;;10.25;;
42978;SDS011;28616;44.746;19.678;2023-04-06T11:27:49;36.83;;;15.27;;
42978;SDS011;28616;44.746;19.678;2023-04-06T11:30:16;38.70;;;12.07;;
42978;SDS011;28616;44.746;19.678;2023-04-06T11:32:43;35.42;;;12.02;;
42978;SDS011;28616;44.746;19.678;2023-04-06T11:35:11;33.65;;;14.27;;
42978;SDS011;28616;44.746;19.678;2023-04-06T11:37:44;37.92;;;15.95;;
42978;SDS011;28616;44.746;19.678;2023-04-06T11:40:10;46.70;;;18.25;;
42978;SDS011;28616;44.746;19.678;2023-04-06T11:42:35;40.45;;;17.70;;
42978;SDS011;28616;44.746;19.678;2023-04-06T11:45:01;38.33;;;16.02;;
42978;SDS011;28616;44.746;19.678;2023-04-06T11:47:28;26.40;;;12.75;;
42978;SDS011;28616;44.746;19.678;2023-04-06T11:49:56;30.27;;;12.70;;
42978;SDS011;28616;44.746;19.678;2023-04-06T11:52:31;26.58;;;10.45;;
42978;SDS011;28616;44.746;19.678;2023-04-06T11:54:56;23.15;;;9.90;;
42978;SDS011;28616;44.746;19.678;2023-04-06T11:57:22;28.40;;;13.68;;
42978;SDS011;28616;44.746;19.678;2023-04-06T11:59:51;42.45;;;18.85;;
42978;SDS011;28616;44.746;19.678;2023-04-06T12:02:17;26.45;;;13.90;;
42978;SDS011;28616;44.746;19.678;2023-04-06T12:04:43;24.17;;;11.15;;
42978;SDS011;28616;44.746;19.678;2023-04-06T12:07:10;22.35;;;10.50;;
42978;SDS011;28616;44.746;19.678;2023-04-06T12:09:35;19.70;;;10.20;;
42978;SDS011;28616;44.746;19.678;2023-04-06T12:12:02;25.95;;;12.45;;
42978;SDS011;28616;44.746;19.678;2023-04-06T12:14:28;23.77;;;11.98;;
42978;SDS011;28616;44.746;19.678;2023-04-06T12:16:56;25.23;;;10.10;;
42978;SDS011;28616;44.746;19.678;2023-04-06T12:19:22;23.80;;;11.52;;
42978;SDS011;28616;44.746;19.678;2023-04-06T12:21:50;26.75;;;11.13;;
42978;SDS011;28616;44.746;19.678;2023-04-06T12:24:17;20.83;;;10.30;;
42978;SDS011;28616;44.746;19.678;2023-04-06T12:26:43;30.08;;;12.52;;
42978;SDS011;28616;44.746;19.678;2023-04-06T12:29:09;44.78;;;18.95;;
42978;SDS011;28616;44.746;19.678;2023-04-06T12:31:35;29.65;;;14.50;;
42978;SDS011;28616;44.746;19.678;2023-04-06T12:34:03;51.00;;;22.60;;
42978;SDS011;28616;44.746;19.678;2023-04-06T12:36:29;25.65;;;13.63;;
42978;SDS011;28616;44.746;19.678;2023-04-06T12:38:56;28.10;;;12.40;;
42978;SDS011;28616;44.746;19.678;2023-04-06T12:41:21;24.55;;;10.50;;
42978;SDS011;28616;44.746;19.678;2023-04-06T12:43:48;60.13;;;20.60;;
42978;SDS011;28616;44.746;19.678;2023-04-06T12:46:17;34.90;;;15.63;;
42978;SDS011;28616;44.746;19.678;2023-04-06T12:48:43;33.45;;;13.57;;
42978;SDS011;28616;44.746;19.678;2023-04-06T12:51:08;36.72;;;14.38;;
42978;SDS011;28616;44.746;19.678;2023-04-06T12:53:34;22.98;;;10.45;;
42978;SDS011;28616;44.746;19.678;2023-04-06T12:56:01;22.90;;;11.25;;
42978;SDS011;28616;44.746;19.678;2023-04-06T12:58:27;26.80;;;11.10;;
42978;SDS011;28616;44.746;19.678;2023-04-06T13:00:54;25.95;;;11.93;;
42978;SDS011;28616;44.746;19.678;2023-04-06T13:03:21;27.13;;;12.50;;
42978;SDS011;28616;44.746;19.678;2023-04-06T13:05:48;23.48;;;11.18;;
42978;SDS011;28616;44.746;19.678;2023-04-06T13:08:17;23.40;;;10.30;;
42978;SDS011;28616;44.746;19.678;2023-04-06T13:10:48;18.83;;;9.77;;
42978;SDS011;28616;44.746;19.678;2023-04-06T13:13:15;31.53;;;12.60;;
42978;SDS011;28616;44.746;19.678;2023-04-06T13:15:42;26.27;;;11.02;;
42978;SDS011;28616;44.746;19.678;2023-04-06T13:18:08;28.95;;;11.57;;
42978;SDS011;28616;44.746;19.678;2023-04-06T13:20:34;32.35;;;13.07;;
42978;SDS011;28616;44.746;19.678;2023-04-06T13:23:00;32.28;;;14.45;;
42978;SDS011;28616;44.746;19.678;2023-04-06T13:25:26;22.60;;;11.68;;
42978;SDS011;28616;44.746;19.678;2023-04-06T13:27:53;23.63;;;11.25;;
42978;SDS011;28616;44.746;19.678;2023-04-06T13:30:19;27.75;;;11.32;;
42978;SDS011;28616;44.746;19.678;2023-04-06T13:32:45;16.63;;;8.48;;
42978;SDS011;28616;44.746;19.678;2023-04-06T13:35:11;12.38;;;6.50;;
42978;SDS011;28616;44.746;19.678;2023-04-06T13:37:37;26.30;;;11.18;;
42978;SDS011;28616;44.746;19.678;2023-04-06T13:40:03;16.45;;;9.05;;
42978;SDS011;28616;44.746;19.678;2023-04-06T13:42:30;14.32;;;8.35;;
42978;SDS011;28616;44.746;19.678;2023-04-06T13:44:56;22.52;;;10.75;;
42978;SDS011;28616;44.746;19.678;2023-04-06T13:47:22;44.15;;;17.92;;
42978;SDS011;28616;44.746;19.678;2023-04-06T13:49:49;34.72;;;14.95;;
42978;SDS011;28616;44.746;19.678;2023-04-06T13:52:17;51.33;;;21.75;;
42978;SDS011;28616;44.746;19.678;2023-04-06T13:54:44;21.30;;;10.80;;
42978;SDS011;28616;44.746;19.678;2023-04-06T13:57:10;19.25;;;10.23;;
42978;SDS011;28616;44.746;19.678;2023-04-06T13:59:37;18.58;;;8.85;;
42978;SDS011;28616;44.746;19.678;2023-04-06T14:02:04;46.30;;;17.42;;
42978;SDS011;28616;44.746;19.678;2023-04-06T14:04:31;72.57;;;25.88;;
42978;SDS011;28616;44.746;19.678;2023-04-06T14:06:57;59.58;;;23.67;;
42978;SDS011;28616;44.746;19.678;2023-04-06T14:09:23;61.08;;;26.40;;
42978;SDS011;28616;44.746;19.678;2023-04-06T14:11:49;33.80;;;16.27;;
42978;SDS011;28616;44.746;19.678;2023-04-06T14:14:15;23.10;;;12.18;;
42978;SDS011;28616;44.746;19.678;2023-04-06T14:16:42;16.80;;;9.10;;
42978;SDS011;28616;44.746;19.678;2023-04-06T14:19:09;22.25;;;11.52;;
42978;SDS011;28616;44.746;19.678;2023-04-06T14:21:37;22.77;;;12.13;;
42978;SDS011;28616;44.746;19.678;2023-04-06T14:24:04;26.65;;;12.57;;
42978;SDS011;28616;44.746;19.678;2023-04-06T14:26:34;62.13;;;25.23;;
42978;SDS011;28616;44.746;19.678;2023-04-06T14:29:00;21.85;;;10.98;;
42978;SDS011;28616;44.746;19.678;2023-04-06T14:31:27;22.58;;;10.48;;
42978;SDS011;28616;44.746;19.678;2023-04-06T14:33:53;31.05;;;16.15;;
42978;SDS011;28616;44.746;19.678;2023-04-06T14:36:19;42.80;;;20.20;;
42978;SDS011;28616;44.746;19.678;2023-04-06T14:38:45;25.00;;;11.30;;
42978;SDS011;28616;44.746;19.678;2023-04-06T14:41:17;16.20;;;8.38;;
42978;SDS011;28616;44.746;19.678;2023-04-06T14:43:44;26.73;;;12.70;;
42978;SDS011;28616;44.746;19.678;2023-04-06T14:46:11;31.70;;;15.27;;
42978;SDS011;28616;44.746;19.678;2023-04-06T14:48:36;31.25;;;14.77;;
42978;SDS011;28616;44.746;19.678;2023-04-06T14:51:02;26.45;;;12.88;;
42978;SDS011;28616;44.746;19.678;2023-04-06T14:53:28;30.70;;;15.25;;
42978;SDS011;28616;44.746;19.678;2023-04-06T14:55:54;26.88;;;12.02;;
42978;SDS011;28616;44.746;19.678;2023-04-06T14:58:21;30.30;;;15.80;;
42978;SDS011;28616;44.746;19.678;2023-04-06T15:00:48;29.45;;;13.30;;
42978;SDS011;28616;44.746;19.678;2023-04-06T15:03:14;28.77;;;10.77;;
42978;SDS011;28616;44.746;19.678;2023-04-06T15:05:41;25.08;;;11.50;;
42978;SDS011;28616;44.746;19.678;2023-04-06T15:08:07;27.77;;;10.27;;
42978;SDS011;28616;44.746;19.678;2023-04-06T15:10:34;21.88;;;10.32;;
42978;SDS011;28616;44.746;19.678;2023-04-06T15:13:01;56.10;;;17.23;;
42978;SDS011;28616;44.746;19.678;2023-04-06T15:15:27;43.50;;;19.67;;
42978;SDS011;28616;44.746;19.678;2023-04-06T15:17:53;22.23;;;11.10;;
42978;SDS011;28616;44.746;19.678;2023-04-06T15:20:19;17.67;;;8.00;;
42978;SDS011;28616;44.746;19.678;2023-04-06T15:22:45;23.63;;;11.00;;
42978;SDS011;28616;44.746;19.678;2023-04-06T15:25:10;42.92;;;19.88;;
42978;SDS011;28616;44.746;19.678;2023-04-06T15:27:36;37.58;;;16.95;;
42978;SDS011;28616;44.746;19.678;2023-04-06T15:30:02;29.55;;;14.45;;
42978;SDS011;28616;44.746;19.678;2023-04-06T15:32:28;79.20;;;29.10;;